createdAt,value
2023-06-05T00:02:09.650Z,2.80
2023-06-05T00:04:40.840Z,2.10
2023-06-05T00:07:11.668Z,3.10
2023-06-05T00:09:42.601Z,3.00
2023-06-05T00:12:13.726Z,2.70
2023-06-05T00:14:46.323Z,2.60
2023-06-05T00:17:17.809Z,2.10
2023-06-05T00:19:48.534Z,2.00
2023-06-05T00:22:19.254Z,2.70
2023-06-05T00:24:50.202Z,2.00
2023-06-05T00:27:21.095Z,3.20
2023-06-05T00:29:52.480Z,1.80
2023-06-05T00:32:23.328Z,2.20
2023-06-05T00:34:54.187Z,2.60
2023-06-05T00:37:26.110Z,2.10
2023-06-05T00:39:56.934Z,2.30
2023-06-05T00:42:27.997Z,3.00
2023-06-05T00:44:58.743Z,2.90
2023-06-05T00:47:29.788Z,2.70
2023-06-05T00:50:01.304Z,4.40
2023-06-05T00:52:32.097Z,2.20
2023-06-05T00:55:03.534Z,2.50
2023-06-05T00:57:35.754Z,2.20
2023-06-05T01:00:08.404Z,2.30
2023-06-05T01:02:39.505Z,1.80
2023-06-05T01:05:11.044Z,3.10
2023-06-05T01:07:42.031Z,2.00
2023-06-05T01:10:13.852Z,2.00
2023-06-05T01:12:53.122Z,2.80
2023-06-05T01:15:30.041Z,2.70
2023-06-05T01:18:02.015Z,2.40
2023-06-05T01:20:39.800Z,2.00
2023-06-05T01:23:10.920Z,2.70
2023-06-05T01:25:43.109Z,2.90
2023-06-05T01:28:19.011Z,1.90
2023-06-05T01:30:55.173Z,2.40
2023-06-05T01:33:31.631Z,2.00
2023-06-05T01:36:06.045Z,2.40
2023-06-05T01:38:37.709Z,1.80
2023-06-05T01:41:09.814Z,2.00
2023-06-05T01:43:41.804Z,2.00
2023-06-05T01:46:13.894Z,2.20
2023-06-05T01:48:46.064Z,3.70
2023-06-05T01:51:16.824Z,2.40
2023-06-05T01:53:50.093Z,2.60
2023-06-05T01:56:25.043Z,2.50
2023-06-05T01:58:56.013Z,2.50
2023-06-05T02:01:29.855Z,2.90
2023-06-05T02:04:00.635Z,3.50
2023-06-05T02:06:34.048Z,3.00
2023-06-05T02:09:05.751Z,2.80
2023-06-05T02:11:37.464Z,2.20
2023-06-05T02:14:08.633Z,2.20
2023-06-05T02:16:39.879Z,2.50
2023-06-05T02:19:10.578Z,2.50
2023-06-05T02:21:41.292Z,2.00
2023-06-05T02:24:11.969Z,3.00
2023-06-05T02:26:42.590Z,2.10
2023-06-05T02:29:13.593Z,2.30
2023-06-05T02:31:44.503Z,3.20
2023-06-05T02:34:15.400Z,1.70
2023-06-05T02:36:46.815Z,2.60
2023-06-05T02:39:18.240Z,2.00
2023-06-05T02:41:49.040Z,2.80
2023-06-05T02:44:19.661Z,2.10
2023-06-05T02:46:50.463Z,2.10
2023-06-05T02:49:21.207Z,1.90
2023-06-05T02:51:51.850Z,2.10
2023-06-05T02:54:22.846Z,1.90
2023-06-05T02:56:54.764Z,3.30
2023-06-05T02:59:25.834Z,3.70
2023-06-05T03:01:57.129Z,2.20
2023-06-05T03:04:27.926Z,2.20
2023-06-05T03:06:59.158Z,1.80
2023-06-05T03:09:29.768Z,2.40
2023-06-05T03:12:00.654Z,2.60
2023-06-05T03:14:31.993Z,3.70
2023-06-05T03:17:04.975Z,2.70
2023-06-05T03:19:35.610Z,1.40
2023-06-05T03:22:06.874Z,1.50
2023-06-05T03:24:39.044Z,3.30
2023-06-05T03:27:09.955Z,2.30
2023-06-05T03:29:40.635Z,3.10
2023-06-05T03:32:11.725Z,2.00
2023-06-05T03:34:43.994Z,3.90
2023-06-05T03:37:14.710Z,2.60
2023-06-05T03:39:45.426Z,3.30
2023-06-05T03:42:16.257Z,3.60
2023-06-05T03:44:46.883Z,5.70
2023-06-05T03:47:17.758Z,2.70
2023-06-05T03:49:48.513Z,2.90
2023-06-05T03:52:24.660Z,3.30
2023-06-05T03:54:56.888Z,4.00
2023-06-05T03:57:27.658Z,2.40
2023-06-05T03:59:58.410Z,2.90
2023-06-05T04:02:29.187Z,2.50
2023-06-05T04:04:59.991Z,4.80
2023-06-05T04:07:32.873Z,4.00
2023-06-05T04:10:05.764Z,18.30
2023-06-05T04:12:36.440Z,15.40
2023-06-05T04:15:10.269Z,15.70
2023-06-05T04:17:41.076Z,10.70
2023-06-05T04:20:15.705Z,14.40
2023-06-05T04:22:47.362Z,7.70
2023-06-05T04:25:18.238Z,15.90
2023-06-05T04:27:51.398Z,10.90
2023-06-05T04:30:22.098Z,11.80
2023-06-05T04:32:55.609Z,11.20
2023-06-05T04:35:27.852Z,12.60
2023-06-05T04:37:58.579Z,5.70
2023-06-05T04:40:30.012Z,5.20
2023-06-05T04:43:00.751Z,8.30
2023-06-05T04:45:31.390Z,5.80
2023-06-05T04:48:02.112Z,7.80
2023-06-05T04:50:34.858Z,7.40
2023-06-05T04:53:06.308Z,5.60
2023-06-05T04:55:37.014Z,4.40
2023-06-05T04:58:07.740Z,6.80
2023-06-05T05:00:38.452Z,4.90
2023-06-05T05:03:11.265Z,5.50
2023-06-05T05:05:42.046Z,4.10
2023-06-05T05:08:12.808Z,5.00
2023-06-05T05:10:43.586Z,4.50
2023-06-05T05:13:14.816Z,4.20
2023-06-05T05:15:45.706Z,6.10
2023-06-05T05:18:17.532Z,4.70
2023-06-05T05:20:48.879Z,3.90
2023-06-05T05:23:19.908Z,3.20
2023-06-05T05:25:50.725Z,4.10
2023-06-05T05:28:21.567Z,3.10
2023-06-05T05:30:53.642Z,5.50
2023-06-05T05:33:24.365Z,3.30
2023-06-05T05:35:55.105Z,3.40
2023-06-05T05:38:25.976Z,3.10
2023-06-05T05:40:56.783Z,3.70
2023-06-05T05:43:27.831Z,3.00
2023-06-05T05:45:58.586Z,3.90
2023-06-05T05:48:29.418Z,6.00
2023-06-05T05:51:00.303Z,2.30
2023-06-05T05:53:31.405Z,3.70
2023-06-05T05:56:03.126Z,4.00
2023-06-05T05:58:34.176Z,3.00
2023-06-05T06:01:05.013Z,4.20
2023-06-05T06:03:38.321Z,2.90
2023-06-05T06:08:39.571Z,3.50
2023-06-05T06:11:11.152Z,3.20
2023-06-05T06:13:42.781Z,3.40
2023-06-05T06:16:15.871Z,3.40
2023-06-05T06:18:46.892Z,2.70
2023-06-05T06:21:18.962Z,3.10
2023-06-05T06:23:50.103Z,3.70
2023-06-05T06:26:21.213Z,4.70
2023-06-05T06:28:51.988Z,3.30
2023-06-05T06:31:23.141Z,3.10
2023-06-05T06:33:54.090Z,3.40
2023-06-05T06:36:24.935Z,3.40
2023-06-05T06:38:57.551Z,3.30
2023-06-05T06:41:28.536Z,2.70
2023-06-05T06:43:59.432Z,3.50
2023-06-05T06:46:30.129Z,2.70
2023-06-05T06:49:00.937Z,3.20
2023-06-05T06:51:31.760Z,3.20
2023-06-05T06:54:02.586Z,2.40
2023-06-05T06:56:33.451Z,3.10
2023-06-05T06:59:12.197Z,2.70
2023-06-05T07:01:48.145Z,3.60
2023-06-05T07:04:21.251Z,2.70
2023-06-05T07:06:52.129Z,2.30
2023-06-05T07:09:23.027Z,2.70
2023-06-05T07:11:54.004Z,3.10
2023-06-05T07:14:25.017Z,2.20
2023-06-05T07:16:58.083Z,3.80
2023-06-05T07:19:30.024Z,2.10
2023-06-05T07:22:01.797Z,3.10
2023-06-05T07:24:33.795Z,3.20
2023-06-05T07:27:05.663Z,3.20
2023-06-05T07:29:37.003Z,3.50
2023-06-05T07:32:08.538Z,3.10
2023-06-05T07:34:39.610Z,2.60
2023-06-05T07:37:10.827Z,3.60
2023-06-05T07:39:41.762Z,3.90
2023-06-05T07:42:13.970Z,2.10
2023-06-05T07:44:45.903Z,2.60
2023-06-05T07:47:16.799Z,2.40
2023-06-05T07:50:00.004Z,3.00
2023-06-05T07:52:32.304Z,2.90
2023-06-05T07:55:03.624Z,2.40
2023-06-05T07:57:34.455Z,2.20
2023-06-05T08:00:11.153Z,3.00
2023-06-05T08:02:42.243Z,2.30
2023-06-05T08:05:13.564Z,3.00
2023-06-05T08:07:44.439Z,2.90
2023-06-05T08:10:15.294Z,2.40
2023-06-05T08:12:46.217Z,2.60
2023-06-05T08:15:17.230Z,3.10
2023-06-05T08:17:48.193Z,2.50
2023-06-05T08:20:19.335Z,2.20
2023-06-05T08:22:50.391Z,2.30
2023-06-05T08:25:21.194Z,2.70
2023-06-05T08:27:52.097Z,3.10
2023-06-05T08:30:23.019Z,3.20
2023-06-05T08:32:53.795Z,2.50
2023-06-05T08:35:24.448Z,2.40
2023-06-05T08:37:55.144Z,2.10
2023-06-05T08:40:29.387Z,2.60
2023-06-05T08:43:01.996Z,2.40
2023-06-05T08:45:34.645Z,2.10
2023-06-05T08:48:08.128Z,1.90
2023-06-05T08:50:41.518Z,2.20
2023-06-05T08:53:15.164Z,1.80
2023-06-05T08:55:46.740Z,3.90
2023-06-05T08:58:17.624Z,2.30
2023-06-05T09:00:50.023Z,2.70
2023-06-05T09:03:21.880Z,2.50
2023-06-05T09:05:54.063Z,2.80
2023-06-05T09:08:33.820Z,3.40
2023-06-05T09:11:28.330Z,2.60
2023-06-05T09:14:01.099Z,2.80
2023-06-05T09:16:39.269Z,2.80
2023-06-05T09:19:11.041Z,2.30
2023-06-05T09:21:43.959Z,2.70
2023-06-05T09:24:19.883Z,2.10
2023-06-05T09:26:52.889Z,2.90
2023-06-05T09:29:28.601Z,3.30
2023-06-05T09:32:00.449Z,2.40
2023-06-05T09:34:32.677Z,1.90
2023-06-05T09:37:04.708Z,2.40
2023-06-05T09:39:37.613Z,2.20
2023-06-05T09:42:08.968Z,2.70
2023-06-05T09:44:40.536Z,3.20
2023-06-05T09:47:14.496Z,2.20
2023-06-05T09:49:51.227Z,2.90
2023-06-05T09:52:22.444Z,2.40
2023-06-05T09:54:57.512Z,2.00
2023-06-05T09:57:29.893Z,2.60
2023-06-05T10:00:05.340Z,3.10
2023-06-05T10:02:39.399Z,2.90
2023-06-05T10:05:14.436Z,3.40
2023-06-05T10:07:45.608Z,3.10
2023-06-05T10:10:16.625Z,2.60
2023-06-05T10:12:48.152Z,2.10
2023-06-05T10:15:19.949Z,3.10
2023-06-05T10:17:51.684Z,2.80
2023-06-05T10:20:23.490Z,3.20
2023-06-05T10:22:55.107Z,3.00
2023-06-05T10:25:28.219Z,5.20
2023-06-05T10:28:16.055Z,2.50
2023-06-05T10:31:21.088Z,3.00
2023-06-05T10:34:14.059Z,3.70
2023-06-05T10:37:22.533Z,3.50
2023-06-05T10:39:55.485Z,2.10
2023-06-05T10:42:30.300Z,2.90
2023-06-05T10:45:02.026Z,2.80
2023-06-05T10:47:56.614Z,3.10
2023-06-05T10:50:33.195Z,2.40
2023-06-05T10:53:04.319Z,2.80
2023-06-05T10:55:46.525Z,2.20
2023-06-05T10:58:17.932Z,5.80
2023-06-05T11:01:19.693Z,4.60
2023-06-05T11:04:03.221Z,3.60
2023-06-05T11:06:34.053Z,2.40
2023-06-05T11:09:18.347Z,2.30
2023-06-05T11:12:04.915Z,3.00
2023-06-05T11:14:50.043Z,3.20
2023-06-05T11:17:32.742Z,3.40
2023-06-05T11:20:07.864Z,4.70
2023-06-05T11:23:10.661Z,5.90
2023-06-05T11:25:41.727Z,2.90
2023-06-05T11:28:13.218Z,3.00
2023-06-05T11:30:49.913Z,3.10
2023-06-05T11:33:23.053Z,2.60
2023-06-05T11:35:54.954Z,2.40
2023-06-05T11:38:26.453Z,2.60
2023-06-05T11:40:58.202Z,3.20
2023-06-05T11:43:29.082Z,5.30
2023-06-05T11:46:01.596Z,2.60
2023-06-05T11:48:33.450Z,2.60
2023-06-05T11:51:06.949Z,3.10
2023-06-05T11:56:18.213Z,3.10
2023-06-05T11:58:50.970Z,2.80
2023-06-05T12:01:24.146Z,3.00
2023-06-05T12:04:09.180Z,4.10
2023-06-05T12:06:47.837Z,3.30
2023-06-05T12:09:18.574Z,2.70
2023-06-05T12:11:49.593Z,3.30
2023-06-05T12:14:33.907Z,3.50
2023-06-05T12:17:12.380Z,4.90
2023-06-05T12:19:43.144Z,3.60
2023-06-05T12:22:15.125Z,3.50
2023-06-05T12:24:45.907Z,2.90
2023-06-05T12:27:16.731Z,2.90
2023-06-05T12:29:57.922Z,3.40
2023-06-05T12:32:29.592Z,4.30
2023-06-05T12:35:05.600Z,3.50
2023-06-05T12:37:40.398Z,4.00
2023-06-05T12:40:21.941Z,2.80
2023-06-05T12:43:00.028Z,3.30
2023-06-05T12:45:31.688Z,3.40
2023-06-05T12:48:03.180Z,2.90
2023-06-05T12:50:34.349Z,3.80
2023-06-05T12:53:05.291Z,4.10
2023-06-05T12:55:36.142Z,4.00
2023-06-05T12:58:07.168Z,3.40
2023-06-05T13:00:41.439Z,3.90
2023-06-05T13:03:13.713Z,3.10
2023-06-05T13:05:44.768Z,3.20
2023-06-05T13:08:15.775Z,2.90
2023-06-05T13:10:46.797Z,3.30
2023-06-05T13:13:18.190Z,3.40
2023-06-05T13:15:49.554Z,3.90
2023-06-05T13:18:20.608Z,4.30
2023-06-05T13:20:51.623Z,2.60
2023-06-05T13:23:22.998Z,3.00
2023-06-05T13:25:53.814Z,4.70
2023-06-05T13:28:27.518Z,2.90
2023-06-05T13:30:58.256Z,2.80
2023-06-05T13:33:28.968Z,3.80
2023-06-05T13:36:00.248Z,3.60
2023-06-05T13:38:31.224Z,3.30
2023-06-05T13:41:01.959Z,3.00
2023-06-05T13:43:33.177Z,3.30
2023-06-05T13:46:04.553Z,3.60
2023-06-05T13:48:35.855Z,4.40
2023-06-05T13:51:07.468Z,2.90
2023-06-05T13:53:38.371Z,3.10
2023-06-05T13:56:09.594Z,3.40
2023-06-05T13:58:40.679Z,3.30
2023-06-05T14:01:11.777Z,2.70
2023-06-05T14:03:42.882Z,4.00
2023-06-05T14:06:13.865Z,4.40
2023-06-05T14:08:44.710Z,3.10
2023-06-05T14:11:16.059Z,2.90
2023-06-05T14:13:46.988Z,2.70
2023-06-05T14:16:17.931Z,4.20
2023-06-05T14:18:48.828Z,3.60
2023-06-05T14:21:19.633Z,3.30
2023-06-05T14:23:50.955Z,2.70
2023-06-05T14:26:22.986Z,2.90
2023-06-05T14:28:54.012Z,3.00
2023-06-05T14:31:26.792Z,3.00
2023-06-05T14:33:57.720Z,7.80
2023-06-05T14:36:28.629Z,7.50
2023-06-05T14:38:59.607Z,4.90
2023-06-05T14:41:32.557Z,4.90
2023-06-05T14:44:18.115Z,3.50
2023-06-05T14:46:52.359Z,3.70
2023-06-05T14:49:23.501Z,4.10
2023-06-05T14:51:54.479Z,5.10
2023-06-05T14:54:25.423Z,12.90
2023-06-05T14:56:56.237Z,11.90
2023-06-05T14:59:27.792Z,11.30
2023-06-05T15:02:00.045Z,11.50
2023-06-05T15:04:32.323Z,6.70
2023-06-05T15:07:03.292Z,6.50
2023-06-05T15:09:34.330Z,4.60
2023-06-05T15:12:06.845Z,7.30
2023-06-05T15:14:37.948Z,4.90
2023-06-05T15:17:10.156Z,3.40
2023-06-05T15:19:41.173Z,6.80
2023-06-05T15:22:12.108Z,4.40
2023-06-05T15:24:43.016Z,5.40
2023-06-05T15:27:13.877Z,4.40
2023-06-05T15:29:44.899Z,5.60
2023-06-05T15:32:20.538Z,3.70
2023-06-05T15:34:52.026Z,4.30
2023-06-05T15:37:24.201Z,4.10
2023-06-05T15:39:55.363Z,4.90
2023-06-05T15:42:35.078Z,5.20
2023-06-05T15:47:42.006Z,5.80
2023-06-05T15:50:13.948Z,4.60
2023-06-05T15:52:44.765Z,3.80
2023-06-05T15:55:15.747Z,9.00
2023-06-05T15:57:49.243Z,5.60
2023-06-05T16:00:22.284Z,4.60
2023-06-05T16:02:54.911Z,8.20
2023-06-05T16:05:26.061Z,5.10
2023-06-05T16:07:57.063Z,6.60
2023-06-05T16:10:28.156Z,5.00
2023-06-05T16:12:59.166Z,4.80
2023-06-05T16:15:30.363Z,5.40
2023-06-05T16:18:01.411Z,6.10
2023-06-05T16:20:32.656Z,6.10
2023-06-05T16:23:03.675Z,6.40
2023-06-05T16:25:34.790Z,3.30
2023-06-05T16:28:05.891Z,6.00
2023-06-05T16:30:37.395Z,5.40
2023-06-05T16:33:09.081Z,4.10
2023-06-05T16:35:40.645Z,5.30
2023-06-05T16:38:11.791Z,4.70
2023-06-05T16:40:42.917Z,4.40
2023-06-05T16:43:13.843Z,3.80
2023-06-05T16:45:47.378Z,3.50
2023-06-05T16:48:18.912Z,3.90
2023-06-05T16:50:50.143Z,3.00
2023-06-05T16:53:21.336Z,4.20
2023-06-05T16:55:55.469Z,3.10
2023-06-05T16:58:26.576Z,3.90
2023-06-05T17:00:57.641Z,3.40
2023-06-05T17:03:28.795Z,3.20
2023-06-05T17:06:01.000Z,3.90
2023-06-05T17:08:33.165Z,3.40
2023-06-05T17:11:09.227Z,4.00
2023-06-05T17:13:49.600Z,3.20
2023-06-05T17:16:20.785Z,4.30
2023-06-05T17:18:51.727Z,4.30
2023-06-05T17:21:24.897Z,4.20
2023-06-05T17:23:56.610Z,3.10
2023-06-05T17:26:28.245Z,3.40
2023-06-05T17:29:00.548Z,3.00
2023-06-05T17:31:33.702Z,3.40
2023-06-05T17:34:04.986Z,3.70
2023-06-05T17:36:36.016Z,4.20
2023-06-05T17:39:07.293Z,3.10
2023-06-05T17:41:39.182Z,3.00
2023-06-05T17:44:10.114Z,6.70
2023-06-05T17:46:41.407Z,5.80
2023-06-05T17:49:13.263Z,5.40
2023-06-05T17:51:46.741Z,3.90
2023-06-05T17:56:48.306Z,4.80
2023-06-05T17:59:19.649Z,5.00
2023-06-05T18:01:52.837Z,4.60
2023-06-05T18:04:24.114Z,4.00
2023-06-05T18:06:55.101Z,5.30
2023-06-05T18:09:26.277Z,3.20
2023-06-05T18:11:57.987Z,4.70
2023-06-05T18:14:29.237Z,3.20
2023-06-05T18:17:00.784Z,3.00
2023-06-05T18:19:32.318Z,3.50
2023-06-05T18:22:04.150Z,3.60
2023-06-05T18:24:35.535Z,3.60
2023-06-05T18:27:08.130Z,4.40
2023-06-05T18:29:39.552Z,3.40
2023-06-05T18:32:11.317Z,3.30
2023-06-05T18:34:42.452Z,4.80
2023-06-05T18:37:13.493Z,3.40
2023-06-05T18:39:44.531Z,4.70
2023-06-05T18:42:16.040Z,3.50
2023-06-05T18:44:47.772Z,3.30
2023-06-05T18:47:21.405Z,3.30
2023-06-05T18:49:52.729Z,4.00
2023-06-05T18:52:25.574Z,3.50
2023-06-05T18:54:57.852Z,4.60
2023-06-05T18:57:29.469Z,4.70
2023-06-05T19:00:00.530Z,3.30
2023-06-05T19:02:31.783Z,3.60
2023-06-05T19:05:03.107Z,4.40
2023-06-05T19:07:34.134Z,5.80
2023-06-05T19:10:07.289Z,3.60
2023-06-05T19:12:42.371Z,3.70
2023-06-05T19:15:14.552Z,4.70
2023-06-05T19:17:46.629Z,3.80
2023-06-05T19:20:17.765Z,4.00
2023-06-05T19:22:48.803Z,3.70
2023-06-05T19:25:20.053Z,3.30
2023-06-05T19:27:51.306Z,3.90
2023-06-05T19:30:22.511Z,4.00
2023-06-05T19:32:54.921Z,4.20
2023-06-05T19:35:27.665Z,4.80
2023-06-05T19:37:58.736Z,5.20
2023-06-05T19:40:30.493Z,4.60
2023-06-05T19:43:02.137Z,3.90
2023-06-05T19:45:33.374Z,5.10
2023-06-05T19:48:04.903Z,5.50
2023-06-05T19:50:37.541Z,5.20
2023-06-05T19:53:08.725Z,4.80
2023-06-05T19:55:40.133Z,4.50
2023-06-05T19:58:11.021Z,4.10
2023-06-05T20:00:41.889Z,3.80
2023-06-05T20:03:13.017Z,4.50
2023-06-05T20:05:44.128Z,3.80
2023-06-05T20:08:15.038Z,3.70
2023-06-05T20:10:45.916Z,3.30
2023-06-05T20:13:17.742Z,3.60
2023-06-05T20:15:48.657Z,3.10
2023-06-05T20:18:19.475Z,3.80
2023-06-05T20:20:50.737Z,3.60
2023-06-05T20:23:21.598Z,5.20
2023-06-05T20:25:52.466Z,3.90
2023-06-05T20:28:23.445Z,5.70
2023-06-05T20:30:54.652Z,5.40
2023-06-05T20:33:25.371Z,7.80
2023-06-05T20:35:56.114Z,3.90
2023-06-05T20:38:26.845Z,8.00
2023-06-05T20:41:00.230Z,4.90
2023-06-05T20:43:31.009Z,5.00
2023-06-05T20:46:03.141Z,5.10
2023-06-05T20:48:34.926Z,6.00
2023-06-05T20:51:07.953Z,4.50
2023-06-05T20:53:40.023Z,3.90
2023-06-05T20:56:10.802Z,4.50
2023-06-05T20:58:41.585Z,4.30
2023-06-05T21:01:12.580Z,4.20
2023-06-05T21:03:43.341Z,4.30
2023-06-05T21:06:14.503Z,4.60
2023-06-05T21:08:45.180Z,4.60
2023-06-05T21:11:16.054Z,3.40
2023-06-05T21:13:47.173Z,3.30
2023-06-05T21:16:18.115Z,3.60
2023-06-05T21:18:49.017Z,4.50
2023-06-05T21:21:19.901Z,3.90
2023-06-05T21:23:50.811Z,3.90
2023-06-05T21:26:21.948Z,3.70
2023-06-05T21:28:52.699Z,3.90
2023-06-05T21:31:25.502Z,4.10
2023-06-05T21:33:56.274Z,3.90
2023-06-05T21:36:27.010Z,3.50
2023-06-05T21:38:57.773Z,3.40
2023-06-05T21:41:28.586Z,4.20
2023-06-05T21:43:59.304Z,3.60
2023-06-05T21:46:30.076Z,3.80
2023-06-05T21:49:00.847Z,3.60
2023-06-05T21:51:31.547Z,4.00
2023-06-05T21:54:02.737Z,3.50
2023-06-05T21:56:33.930Z,4.10
2023-06-05T21:59:04.650Z,3.40
2023-06-05T22:01:35.389Z,6.00
2023-06-05T22:04:06.271Z,4.20
2023-06-05T22:06:37.036Z,4.10
2023-06-05T22:09:08.036Z,3.80
2023-06-05T22:11:39.786Z,3.80
2023-06-05T22:14:10.470Z,3.90
2023-06-05T22:16:43.354Z,4.30
2023-06-05T22:19:14.365Z,3.50
2023-06-05T22:21:45.483Z,3.90
2023-06-05T22:24:16.281Z,3.50
2023-06-05T22:26:48.988Z,3.20
2023-06-05T22:29:19.859Z,3.70
2023-06-05T22:31:50.845Z,3.90
2023-06-05T22:34:21.631Z,3.00
2023-06-05T22:36:52.632Z,3.40
2023-06-05T22:39:23.297Z,3.40
2023-06-05T22:41:53.984Z,3.50
2023-06-05T22:44:26.591Z,3.60
2023-06-05T22:46:57.760Z,3.50
2023-06-05T22:49:28.789Z,4.10
2023-06-05T22:52:00.184Z,3.30
2023-06-05T22:54:31.018Z,3.60
2023-06-05T22:57:02.049Z,3.40
2023-06-05T22:59:32.797Z,4.00
2023-06-05T23:02:03.753Z,3.60
2023-06-05T23:04:39.679Z,3.80
2023-06-05T23:07:12.565Z,3.20
2023-06-05T23:09:43.543Z,3.40
2023-06-05T23:12:14.340Z,3.60
2023-06-05T23:14:45.035Z,3.90
2023-06-05T23:17:15.864Z,3.40
2023-06-05T23:19:46.521Z,3.80
2023-06-05T23:22:17.331Z,4.10
2023-06-05T23:24:48.227Z,3.00
2023-06-05T23:27:19.429Z,3.90
2023-06-05T23:29:50.145Z,3.40
2023-06-05T23:32:20.956Z,3.40
2023-06-05T23:34:51.588Z,3.50
2023-06-05T23:37:22.453Z,3.60
2023-06-05T23:39:53.193Z,3.30
2023-06-05T23:42:24.333Z,3.20
2023-06-05T23:44:55.009Z,3.10
2023-06-05T23:47:26.508Z,3.10
2023-06-05T23:49:57.248Z,5.00
2023-06-05T23:52:28.193Z,3.70
2023-06-05T23:54:59.154Z,2.80
2023-06-05T23:57:30.447Z,3.30
